Latest Weather Observations for Katanning RS

IDW60801

Issued at 8:03 pm WST Friday 29 April 2016 (issued every 30 minutes, with the page automatically refreshed every 10 minutes)

About weather observations | Map of weather stations | Latest weather observations for WA | Other Formats
Station Details ID: 010916 Name: KATANNING Lat: -33.69 Lon: 117.61 Height: 320.0 m
Data from the previous 72 hours. | See also: Recent months at Katanning RS
Date/Time
WST
Temp
°C
App
Temp
°C
Dew
Point
Rel
Hum
%
Delta-T
°C
Wind Press
QNH
hPa
Press
MSL
hPa
Rain
since 9 am
mm
Dir
 
Spd
km/h
Gust
km/h
Spd
kts
Gust
kts
29/08:00pm 11.9 9.8 9.8 87 1.1 WSW 11 15 6 8 1013.1 1012.3 6.4
29/07:30pm 11.9 10.6 9.8 87 1.1 WSW 7 11 4 6 1012.9 1012.1 6.4
29/07:00pm 12.0 9.9 9.9 87 1.1 SW 11 17 6 9 1012.7 1011.9 6.4
29/06:30pm 12.2 8.5 10.3 88 1.0 SSW 20 32 11 17 1012.1 1011.4 6.2
29/06:00pm 13.6 9.5 11.5 87 1.1 W 24 32 13 17 1011.4 1010.6 4.0
29/05:30pm 14.2 11.4 11.2 82 1.6 WNW 17 24 9 13 1011.0 1010.2 0.6
29/05:01pm 14.5 8.1 10.7 78 2.0 WNW 35 54 19 29 1010.5 1009.7 0.2
29/05:00pm 14.5 7.7 10.7 78 2.0 WNW 37 54 20 29 1010.4 1009.6 0.2
29/04:48pm 16.1 10.8 9.8 66 3.3 WNW 28 46 15 25 1010.2 1009.4 0.0
29/04:30pm 16.3 12.3 10.4 68 3.2 WNW 22 37 12 20 1010.3 1009.5 0.0
29/04:00pm 16.2 11.0 10.1 67 3.3 WNW 28 39 15 21 1010.7 1009.9 0.0
29/03:37pm 16.8 11.5 9.7 63 3.8 WNW 28 46 15 25 1010.7 1009.9 0.0
29/03:30pm 17.3 11.9 9.5 60 4.1 WNW 28 41 15 22 1010.6 1009.8 0.0
29/03:00pm 17.5 11.5 8.6 56 4.7 WNW 30 46 16 25 1010.4 1009.6 0.0
29/02:53pm 17.9 12.3 8.7 55 4.8 WNW 28 46 15 25 1010.4 1009.6 0.0
29/02:30pm 17.6 12.6 9.5 59 4.3 WNW 26 41 14 22 1010.3 1009.5 0.0
29/02:00pm 17.8 11.9 8.9 56 4.7 WNW 30 46 16 25 1010.5 1009.7 0.0
29/01:30pm 17.9 11.2 8.2 53 5.0 W 33 46 18 25 1010.5 1009.7 0.0
29/01:02pm 18.0 12.1 9.1 56 4.7 WNW 30 50 16 27 1010.9 1010.1 0.0
29/01:00pm 17.9 11.6 9.0 56 4.7 WNW 32 50 17 27 1010.9 1010.1 0.0
29/12:44pm 18.2 12.2 8.7 54 5.0 WNW 30 54 16 29 1010.9 1010.1 0.0
29/12:30pm 17.9 11.1 9.3 57 4.6 W 35 48 19 26 1011.1 1010.3 0.0
29/12:00pm 17.7 11.6 9.8 60 4.2 WNW 32 46 17 25 1011.5 1010.7 0.0
29/11:43am 17.2 11.0 9.4 60 4.1 W 32 54 17 29 1011.6 1010.8 0.0
29/11:30am 16.4 11.9 10.0 66 3.4 W 24 37 13 20 1011.9 1011.2 0.0
29/11:00am 14.7 10.9 11.1 79 1.9 W 22 32 12 17 1012.2 1011.5 0.0
29/10:30am 15.6 11.3 10.6 72 2.7 WNW 24 37 13 20 1012.4 1011.6 0.0
29/10:00am 15.4 10.7 10.6 73 2.6 WNW 26 33 14 18 1012.5 1011.7 0.0
29/09:30am 14.6 10.6 10.4 76 2.2 WNW 22 33 12 18 1013.0 1012.2 0.0
29/09:00am 13.9 9.7 9.9 77 2.1 WNW 22 35 12 19 1013.3 1012.5 2.8
29/08:30am 12.7 9.5 9.9 83 1.5 NW 17 24 9 13 1013.2 1012.4 2.8
29/08:00am 11.7 8.0 9.3 85 1.2 NW 19 26 10 14 1013.2 1012.4 2.8
29/07:30am 11.1 8.0 8.8 86 1.2 WNW 15 22 8 12 1012.8 1012.0 2.8
29/07:00am 10.8 8.1 8.9 88 1.0 WNW 13 22 7 12 1012.9 1012.1 2.8
29/06:30am 10.2 7.3 8.3 88 0.9 WNW 13 19 7 10 1013.1 1012.3 2.8
29/06:00am 9.4 6.3 7.3 87 1.0 WNW 13 19 7 10 1013.1 1012.3 2.8
29/05:30am 9.5 6.0 7.4 87 1.0 NW 15 22 8 12 1013.1 1012.3 2.8
29/05:00am 9.3 6.6 7.3 87 1.0 NW 11 17 6 9 1013.2 1012.4 2.8
29/04:30am 9.4 5.9 7.3 87 1.0 NW 15 20 8 11 1013.2 1012.4 2.8
29/04:00am 9.3 5.8 7.1 86 1.1 NW 15 19 8 10 1013.2 1012.4 2.8
29/03:30am 9.3 6.2 7.3 87 1.0 NW 13 17 7 9 1013.4 1012.6 2.8
29/03:00am 9.2 6.0 7.0 86 1.1 NW 13 19 7 10 1013.7 1012.9 2.8
29/02:30am 9.2 6.0 7.0 86 1.1 NW 13 17 7 9 1013.8 1013.0 2.8
29/02:00am 9.5 6.7 6.9 84 1.2 WNW 11 15 6 8 1014.1 1013.3 2.8
29/01:30am 9.8 7.0 6.9 82 1.4 WNW 11 15 6 8 1014.1 1013.3 2.8
29/01:00am 9.8 6.9 6.7 81 1.5 WNW 11 15 6 8 1013.9 1013.1 2.8
29/12:30am 10.1 6.9 7.0 81 1.5 WNW 13 19 7 10 1013.7 1012.9 2.8
29/12:00am 10.2 7.1 7.1 81 1.5 WNW 13 17 7 9 1013.8 1013.0 2.8
 
Date/Time
WST
Temp
°C
App
Temp
°C
Dew
Point
Rel
Hum
%
Delta-T
°C
Wind Press
QNH
hPa
Press
MSL
hPa
Rain
since 9 am
mm
Dir
 
Spd
km/h
Gust
km/h
Spd
kts
Gust
kts
28/11:30pm 10.2 7.4 6.9 80 1.6 WNW 11 15 6 8 1014.1 1013.3 2.8
28/11:00pm 10.4 7.2 6.9 79 1.7 WNW 13 19 7 10 1014.2 1013.4 2.8
28/10:30pm 9.8 6.9 6.5 80 1.6 WNW 11 15 6 8 1014.2 1013.4 2.8
28/10:00pm 10.3 7.9 7.0 80 1.6 WNW 9 15 5 8 1014.2 1013.4 2.8
28/09:30pm 10.4 8.0 7.1 80 1.6 WNW 9 13 5 7 1014.2 1013.4 2.8
28/09:00pm 10.5 7.7 6.8 78 1.8 W 11 17 6 9 1014.1 1013.3 2.8
28/08:30pm 10.7 8.0 7.4 80 1.6 W 11 13 6 7 1013.9 1013.1 2.8
28/08:00pm 11.0 8.4 7.7 80 1.6 WNW 11 13 6 7 1014.0 1013.2 2.8
28/07:30pm 11.6 8.9 7.5 76 2.0 W 11 15 6 8 1013.9 1013.1 2.8
28/07:00pm 12.7 9.4 8.2 74 2.3 WSW 15 20 8 11 1013.6 1012.8 2.8
28/06:30pm 12.5 10.5 8.6 77 2.0 WSW 9 13 5 7 1013.1 1012.3 2.8
28/06:00pm 12.3 10.7 8.6 78 1.9 WSW 7 11 4 6 1012.5 1011.7 2.8
28/05:30pm 13.2 10.4 8.7 74 2.3 WSW 13 19 7 10 1011.8 1011.0 2.8
28/05:00pm 13.9 9.4 8.7 71 2.7 WSW 22 33 12 18 1011.9 1011.2 2.8
28/04:30pm 14.4 10.7 10.0 75 2.3 WSW 20 32 11 17 1011.5 1010.7 2.8
28/04:00pm 15.8 10.7 9.2 65 3.5 WSW 26 35 14 19 1010.8 1010.0 2.8
28/03:30pm 16.4 11.1 9.8 65 3.5 WSW 28 41 15 22 1010.5 1009.7 2.8
28/03:03pm 15.6 10.3 9.7 68 3.1 WSW 28 46 15 25 1010.3 1009.5 2.8
28/03:00pm 15.4 10.1 9.7 69 3.0 WSW 28 39 15 21 1010.3 1009.5 2.8
28/02:30pm 15.3 9.2 9.7 69 3.0 SW 32 46 17 25 1010.0 1009.2 2.8
28/02:09pm 17.0 10.8 10.1 64 3.7 W 33 54 18 29 1009.4 1008.6 2.8
28/02:00pm 16.9 11.3 11.4 70 3.0 W 32 43 17 23 1009.3 1008.5 2.8
28/01:30pm 15.0 10.7 12.0 82 1.7 W 26 37 14 20 1009.3 1008.5 2.8
28/01:10pm 14.0 9.1 11.3 84 1.5 W 28 57 15 31 1009.6 1008.8 2.6
28/01:00pm 14.4 10.9 12.1 86 1.3 W 22 37 12 20 1009.7 1008.9 2.0
28/12:30pm 14.2 11.0 11.9 86 1.3 W 20 28 11 15 1009.8 1009.0 1.2
28/12:00pm 14.2 9.1 11.9 86 1.3 NW 30 43 16 23 1010.0 1009.2 0.2
28/11:30am 13.9 8.1 11.6 86 1.2 NW 33 48 18 26 1010.1 1009.3 0.0
28/11:00am 14.1 9.1 10.9 81 1.7 NW 28 43 15 23 1010.7 1009.9 0.0
28/10:30am 13.8 7.9 10.4 80 1.8 NW 32 48 17 26 1011.1 1010.3 0.0
28/10:06am 14.3 8.8 9.3 72 2.6 NW 28 46 15 25 1011.4 1010.6 0.0
28/10:00am 14.4 9.5 9.8 74 2.4 NW 26 37 14 20 1011.5 1010.7 0.0
28/09:30am 13.5 7.7 9.4 76 2.1 NW 30 43 16 23 1011.9 1011.2 0.0
28/09:00am 13.7 7.9 9.6 76 2.1 NW 30 39 16 21 1011.8 1011.0 0.4
28/08:30am 12.2 7.2 9.4 83 1.4 NNW 26 35 14 19 1011.7 1010.9 0.4
28/08:00am 10.9 6.1 8.7 86 1.1 NNW 24 35 13 19 1012.0 1011.3 0.4
28/07:30am 9.7 5.6 7.8 88 0.9 NNW 19 28 10 15 1012.0 1011.3 0.4
28/07:00am 9.3 5.1 7.6 89 0.8 NNW 19 26 10 14 1012.5 1011.7 0.2
28/06:30am 8.9 4.6 7.2 89 0.8 NNW 19 28 10 15 1012.5 1011.7 0.2
28/06:00am 9.2 4.8 7.5 89 0.8 NNW 20 28 11 15 1012.2 1011.5 0.2
28/05:30am 9.1 4.7 7.4 89 0.8 NNW 20 26 11 14 1012.4 1011.6 0.2
28/05:00am 9.4 5.6 7.5 88 0.9 NW 17 24 9 13 1012.6 1011.8 0.2
28/04:30am 9.9 5.6 7.8 87 1.0 NW 20 30 11 16 1012.9 1012.1 0.2
28/04:00am 9.6 5.4 7.4 86 1.1 NW 19 28 10 15 1013.1 1012.3 0.0
28/03:30am 9.1 5.2 7.1 87 1.0 NNW 17 22 9 12 1013.3 1012.5 0.0
28/03:00am 8.8 5.2 6.6 86 1.0 NNW 15 22 8 12 1013.5 1012.7 0.0
28/02:30am 8.9 5.2 6.5 85 1.1 NW 15 17 8 9 1014.0 1013.2 0.0
28/02:00am 9.0 6.1 6.4 84 1.2 NNW 11 15 6 8 1014.1 1013.3 0.0
28/01:30am 9.1 6.2 6.4 83 1.3 NW 11 15 6 8 1014.6 1013.9 0.0
28/01:00am 8.9 5.9 6.2 83 1.3 NW 11 17 6 9 1014.6 1013.9 0.0
28/12:30am 9.2 6.3 6.5 83 1.3 WNW 11 17 6 9 1014.5 1013.7 0.0
28/12:00am 8.6 5.6 5.9 83 1.3 NW 11 15 6 8 1014.7 1014.0 0.0
 
Date/Time
WST
Temp
°C
App
Temp
°C
Dew
Point
Rel
Hum
%
Delta-T
°C
Wind Press
QNH
hPa
Press
MSL
hPa
Rain
since 9 am
mm
Dir
 
Spd
km/h
Gust
km/h
Spd
kts
Gust
kts
27/11:30pm 8.6 6.0 6.1 84 1.2 NW 9 11 5 6 1015.0 1014.3 0.0
27/11:00pm 8.1 5.7 5.2 82 1.3 NNW 7 9 4 5 1015.2 1014.5 0.0
27/10:30pm 8.7 6.6 5.6 81 1.4 NW 6 7 3 4 1015.7 1014.9 0.0
27/10:00pm 9.0 6.9 5.6 79 1.6 NNW 6 7 3 4 1015.8 1015.0 0.0
27/09:30pm 10.2 8.0 6.2 76 1.9 WNW 7 11 4 6 1016.1 1015.3 0.0
27/09:00pm 10.7 8.1 6.1 73 2.2 WNW 9 13 5 7 1016.2 1015.4 0.0
27/08:30pm 11.8 8.9 6.3 69 2.6 WNW 11 15 6 8 1016.2 1015.4 0.0
27/08:00pm 12.3 9.8 6.4 67 2.8 W 9 13 5 7 1016.3 1015.5 0.0
27/07:30pm 12.4 9.4 6.2 66 3.0 W 11 15 6 8 1016.2 1015.4 0.0
27/07:00pm 12.6 9.6 5.8 63 3.2 W 11 15 6 8 1016.1 1015.3 0.0
27/06:30pm 12.6 9.9 5.5 62 3.4 W 9 15 5 8 1015.8 1015.0 0.0
27/06:00pm 12.2 9.8 5.1 62 3.3 W 7 11 4 6 1015.5 1014.8 0.0
27/05:30pm 13.4 9.8 5.1 57 3.9 WSW 13 17 7 9 1015.3 1014.6 0.0
27/05:00pm 13.9 9.9 5.0 55 4.2 W 15 22 8 12 1015.3 1014.6 0.0
27/04:30pm 14.2 9.8 4.5 52 4.6 WSW 17 22 9 12 1015.3 1014.6 0.0
27/04:00pm 14.4 9.5 4.1 50 4.8 W 19 28 10 15 1015.2 1014.5 0.0
27/03:30pm 14.7 9.6 4.1 49 5.0 WNW 20 32 11 17 1015.1 1014.4 0.0
27/03:00pm 15.8 11.0 4.5 47 5.4 W 19 28 10 15 1015.1 1014.4 0.0
27/02:30pm 15.6 10.9 5.2 50 5.0 WSW 19 24 10 13 1015.1 1014.4 0.0
27/02:00pm 15.2 10.4 5.4 52 4.7 WNW 20 28 11 15 1015.3 1014.6 0.0
27/01:30pm 13.9 9.1 4.5 53 4.4 W 19 24 10 13 1015.7 1014.9 0.0
27/01:00pm 12.3 6.8 6.1 66 3.0 W 24 37 13 20 1016.0 1015.2 0.0
27/12:30pm 13.7 9.1 5.6 58 3.9 W 19 26 10 14 1016.0 1015.2 0.0
27/12:00pm 13.3 8.8 5.9 61 3.6 W 19 24 10 13 1016.4 1015.6 0.0
27/11:30am 13.4 8.9 6.0 61 3.6 W 19 30 10 16 1016.5 1015.7 0.0
27/11:00am 11.9 7.6 5.3 64 3.1 W 17 22 9 12 1016.8 1016.0 0.0
27/10:30am 12.5 8.4 6.3 66 3.0 WNW 17 24 9 13 1017.1 1016.3 0.0
27/10:00am 12.1 8.1 6.8 70 2.6 W 17 24 9 13 1017.3 1016.6 0.0
27/09:30am 11.6 8.4 6.9 73 2.3 WNW 13 20 7 11 1017.2 1016.4 0.0
27/09:00am 10.4 7.1 6.5 77 1.9 W 13 19 7 10 1017.2 1016.4 2.0
27/08:30am 9.3 6.8 6.4 82 1.4 WNW 9 13 5 7 1017.0 1016.2 2.0
27/08:00am 8.1 5.1 5.9 86 1.0 WNW 11 17 6 9 1016.8 1016.0 2.0
27/07:30am 6.9 3.3 5.1 88 0.8 WNW 13 17 7 9 1016.6 1015.8 2.0
27/07:00am 6.0 3.0 4.3 89 0.7 NW 9 13 5 7 1016.2 1015.4 2.0
27/06:30am 5.8 2.4 4.1 89 0.7 WNW 11 15 6 8 1016.0 1015.2 2.0
27/06:00am 5.8 2.8 4.0 88 0.8 NW 9 13 5 7 1015.9 1015.1 2.0
27/05:30am 6.1 3.5 4.3 88 0.8 WNW 7 11 4 6 1015.9 1015.1 2.0
27/05:00am 6.5 3.6 4.7 88 0.8 WNW 9 13 5 7 1015.7 1014.9 2.0
27/04:30am 6.8 4.0 5.0 88 0.8 WNW 9 13 5 7 1015.3 1014.6 2.0
27/04:00am 6.5 3.2 4.7 88 0.8 W 11 13 6 7 1015.2 1014.5 2.0
27/03:30am 5.9 3.2 3.9 87 0.9 WNW 7 9 4 5 1015.0 1014.3 2.0
27/03:00am 6.4 3.5 4.4 87 0.9 WNW 9 13 5 7 1014.9 1014.2 2.0
27/02:30am 6.4 3.1 4.4 87 0.9 WNW 11 13 6 7 1015.2 1014.5 2.0
27/02:00am 6.7 3.8 4.7 87 0.9 WNW 9 13 5 7 1015.1 1014.4 2.0
27/01:30am 6.7 3.8 4.5 86 1.0 NW 9 11 5 6 1015.2 1014.5 2.0
27/01:00am 7.3 4.5 5.0 85 1.0 WNW 9 13 5 7 1014.9 1014.2 2.0
27/12:30am 7.6 4.4 5.2 85 1.1 WNW 11 15 6 8 1014.8 1014.1 2.0
27/12:00am 7.4 4.6 5.0 85 1.1 NW 9 11 5 6 1014.5 1013.7 2.0
 
Date/Time
WST
Temp
°C
App
Temp
°C
Dew
Point
Rel
Hum
%
Delta-T
°C
Wind Press
QNH
hPa
Press
MSL
hPa
Rain
since 9 am
mm
Dir
 
Spd
km/h
Gust
km/h
Spd
kts
Gust
kts
26/11:30pm 7.4 4.5 4.7 83 1.2 WNW 9 11 5 6 1014.5 1013.7 2.0
26/11:00pm 8.3 5.2 5.4 82 1.3 W 11 15 6 8 1014.6 1013.9 2.0
26/10:30pm 7.9 5.1 5.2 83 1.2 WNW 9 15 5 8 1014.6 1013.9 2.0
26/10:00pm 7.9 5.0 4.8 81 1.4 WNW 9 13 5 7 1014.6 1013.9 2.0
26/09:30pm 7.9 5.0 4.7 80 1.4 W 9 13 5 7 1014.1 1013.3 2.0
26/09:00pm 8.6 5.4 5.2 79 1.6 W 11 15 6 8 1014.1 1013.3 2.0
26/08:30pm 8.8 5.7 5.5 80 1.5 W 11 15 6 8 1014.0 1013.2 2.0

Other Formats:

Comma delimited format used in spreadsheet applications
http://www.bom.gov.au/fwo/IDW60801/IDW60801.94641.axf

JavaScript Object Notation format (JSON) in row-major order
http://www.bom.gov.au/fwo/IDW60801/IDW60801.94641.json